Time;durP1;ratioP1;P1;durP2;ratioP2;P2;SDS_P1;SDS_P2;PMS_P1;PMS_P2;Temp;Humidity;BMP_temperature;BMP_pressure;BME280_temperature;BME280_humidity;BME280_pressure;Samples;Min_cycle;Max_cycle;Signal;HPM_P1;HPM_P2
2020/09/05 00:00:22;;;;;;;4.8;4.4;;;;;;;15.42;87.11621;95601.64;;;;
2020/09/05 00:01:23;;;;;;;4.8;4.4;;;;;;;15.42;87.11621;95601.64;;;;
2020/09/05 00:02:23;;;;;;;4.8;4.4;;;;;;;15.42;87.11621;95601.64;;;;
2020/09/05 00:03:24;;;;;;;4.8;4.4;;;;;;;15.42;87.11621;95601.64;;;;
2020/09/05 00:04:24;;;;;;;4.8;4.4;;;;;;;15.42;87.11621;95601.64;;;;
2020/09/05 00:05:25;;;;;;;4.8;4.4;;;;;;;15.42;87.11621;95601.64;;;;
2020/09/05 00:06:25;;;;;;;4.8;4.4;;;;;;;15.42;87.11621;95601.64;;;;
2020/09/05 00:07:27;;;;;;;4.8;4.4;;;;;;;15.42;87.11621;95601.64;;;;
2020/09/05 00:08:27;;;;;;;4.8;4.4;;;;;;;15.42;87.11621;95601.64;;;;
2020/09/05 00:09:29;;;;;;;4.8;4.4;;;;;;;15.42;87.11621;95601.64;;;;
2020/09/05 00:10:29;;;;;;;4.849999;4.45;;;;;;;15.35;87.56738;95600.06;;;;
2020/09/05 00:11:30;;;;;;;4.849999;4.45;;;;;;;15.35;87.56738;95600.06;;;;
2020/09/05 00:12:30;;;;;;;4.849999;4.45;;;;;;;15.35;87.56738;95600.06;;;;
2020/09/05 00:13:31;;;;;;;4.849999;4.45;;;;;;;15.35;87.56738;95600.06;;;;
2020/09/05 00:14:31;;;;;;;4.849999;4.45;;;;;;;15.35;87.56738;95600.06;;;;
2020/09/05 00:15:32;;;;;;;4.849999;4.45;;;;;;;15.35;87.56738;95600.06;;;;
2020/09/05 00:16:32;;;;;;;4.849999;4.45;;;;;;;15.35;87.56738;95600.06;;;;
2020/09/05 00:17:33;;;;;;;4.849999;4.45;;;;;;;15.35;87.56738;95600.06;;;;
2020/09/05 00:18:33;;;;;;;4.849999;4.45;;;;;;;15.35;87.56738;95600.06;;;;
2020/09/05 00:19:34;;;;;;;4.849999;4.45;;;;;;;15.35;87.56738;95600.06;;;;
2020/09/05 00:20:34;;;;;;;4.849999;4.45;;;;;;;15.35;87.56738;95600.06;;;;
2020/09/05 00:21:35;;;;;;;4.65;4.25;;;;;;;15.33;87.94043;95584.94;;;;
2020/09/05 00:22:35;;;;;;;4.65;4.25;;;;;;;15.33;87.94043;95584.94;;;;
2020/09/05 00:23:35;;;;;;;4.65;4.25;;;;;;;15.33;87.94043;95584.94;;;;
2020/09/05 00:24:36;;;;;;;4.65;4.25;;;;;;;15.33;87.94043;95584.94;;;;
2020/09/05 00:25:36;;;;;;;4.65;4.25;;;;;;;15.33;87.94043;95584.94;;;;
2020/09/05 00:26:37;;;;;;;4.65;4.25;;;;;;;15.33;87.94043;95584.94;;;;
2020/09/05 00:27:38;;;;;;;4.65;4.25;;;;;;;15.33;87.94043;95584.94;;;;
2020/09/05 00:28:38;;;;;;;4.65;4.25;;;;;;;15.33;87.94043;95584.94;;;;
2020/09/05 00:29:39;;;;;;;4.65;4.25;;;;;;;15.33;87.94043;95584.94;;;;
2020/09/05 00:30:39;;;;;;;4.65;4.25;;;;;;;15.33;87.94043;95584.94;;;;
2020/09/05 00:31:40;;;;;;;4.35;4.05;;;;;;;15.19;88.35352;95572.85;;;;
2020/09/05 00:32:40;;;;;;;4.35;4.05;;;;;;;15.19;88.35352;95572.85;;;;
2020/09/05 00:33:41;;;;;;;4.35;4.05;;;;;;;15.19;88.35352;95572.85;;;;
2020/09/05 00:34:41;;;;;;;4.35;4.05;;;;;;;15.19;88.35352;95572.85;;;;
2020/09/05 00:35:42;;;;;;;4.35;4.05;;;;;;;15.19;88.35352;95572.85;;;;
2020/09/05 00:36:42;;;;;;;4.35;4.05;;;;;;;15.19;88.35352;95572.85;;;;
2020/09/05 00:37:43;;;;;;;4.35;4.05;;;;;;;15.19;88.35352;95572.85;;;;
2020/09/05 00:38:43;;;;;;;4.35;4.05;;;;;;;15.19;88.35352;95572.85;;;;
2020/09/05 00:39:44;;;;;;;4.35;4.05;;;;;;;15.19;88.35352;95572.85;;;;
2020/09/05 00:40:44;;;;;;;4.35;4.05;;;;;;;15.19;88.35352;95572.85;;;;
2020/09/05 00:41:47;;;;;;;4.35;4.05;;;;;;;15.19;88.35352;95572.85;;;;
2020/09/05 00:42:48;;;;;;;4.95;4.5;;;;;;;15.13;88.85938;95562.03;;;;
2020/09/05 00:43:48;;;;;;;4.95;4.5;;;;;;;15.13;88.85938;95562.03;;;;
2020/09/05 00:44:48;;;;;;;4.95;4.5;;;;;;;15.13;88.85938;95562.03;;;;
2020/09/05 00:45:49;;;;;;;4.95;4.5;;;;;;;15.13;88.85938;95562.03;;;;
2020/09/05 00:46:49;;;;;;;4.95;4.5;;;;;;;15.13;88.85938;95562.03;;;;
2020/09/05 00:47:51;;;;;;;4.95;4.5;;;;;;;15.13;88.85938;95562.03;;;;
2020/09/05 00:48:51;;;;;;;4.95;4.5;;;;;;;15.13;88.85938;95562.03;;;;
2020/09/05 00:49:53;;;;;;;4.95;4.5;;;;;;;15.13;88.85938;95562.03;;;;
2020/09/05 00:50:53;;;;;;;4.95;4.5;;;;;;;15.13;88.85938;95562.03;;;;
2020/09/05 00:51:56;;;;;;;4.95;4.5;;;;;;;15.13;88.85938;95562.03;;;;
2020/09/05 00:53:08;;;;;;;4.45;4.05;;;;;;;15.04;89.38965;95558.65;;;;
2020/09/05 00:54:17;;;;;;;4.45;4.05;;;;;;;15.04;89.38965;95558.65;;;;
2020/09/05 00:55:26;;;;;;;4.45;4.05;;;;;;;15.04;89.38965;95558.65;;;;
2020/09/05 01:01:40;;;;;;;4.45;4.05;;;;;;;15.04;89.38965;95558.65;;;;
2020/09/05 01:02:41;;;;;;;4.45;4.05;;;;;;;15.04;89.38965;95558.65;;;;
2020/09/05 01:03:42;;;;;;;4.750001;4.35;;;;;;;15.02;89.81445;95551.33;;;;
2020/09/05 01:04:44;;;;;;;4.750001;4.35;;;;;;;15.02;89.81445;95551.33;;;;
2020/09/05 01:05:46;;;;;;;4.750001;4.35;;;;;;;15.02;89.81445;95551.33;;;;
2020/09/05 01:06:47;;;;;;;4.750001;4.35;;;;;;;15.02;89.81445;95551.33;;;;
2020/09/05 01:07:49;;;;;;;4.750001;4.35;;;;;;;15.02;89.81445;95551.33;;;;
2020/09/05 01:08:49;;;;;;;4.750001;4.35;;;;;;;15.02;89.81445;95551.33;;;;
2020/09/05 01:09:55;;;;;;;4.750001;4.35;;;;;;;15.02;89.81445;95551.33;;;;
2020/09/05 01:10:55;;;;;;;4.750001;4.35;;;;;;;15.02;89.81445;95551.33;;;;
2020/09/05 01:11:57;;;;;;;4.750001;4.35;;;;;;;15.02;89.81445;95551.33;;;;
2020/09/05 01:13:01;;;;;;;4.750001;4.35;;;;;;;15.02;89.81445;95551.33;;;;
2020/09/05 01:14:02;;;;;;;4.5;4.1;;;;;;;14.98;90.2041;95552.5;;;;
2020/09/05 01:15:05;;;;;;;4.5;4.1;;;;;;;14.98;90.2041;95552.5;;;;
2020/09/05 01:16:06;;;;;;;4.5;4.1;;;;;;;14.98;90.2041;95552.5;;;;
2020/09/05 01:17:10;;;;;;;4.5;4.1;;;;;;;14.98;90.2041;95552.5;;;;
2020/09/05 01:18:11;;;;;;;4.5;4.1;;;;;;;14.98;90.2041;95552.5;;;;
2020/09/05 01:19:11;;;;;;;4.5;4.1;;;;;;;14.98;90.2041;95552.5;;;;
2020/09/05 01:20:14;;;;;;;4.5;4.1;;;;;;;14.98;90.2041;95552.5;;;;
2020/09/05 01:21:14;;;;;;;4.5;4.1;;;;;;;14.98;90.2041;95552.5;;;;
2020/09/05 01:22:16;;;;;;;4.5;4.1;;;;;;;14.98;90.2041;95552.5;;;;
2020/09/05 01:23:17;;;;;;;4.5;4.1;;;;;;;14.98;90.2041;95552.5;;;;
2020/09/05 01:24:18;;;;;;;4.5;4.1;;;;;;;14.98;90.2041;95552.5;;;;
2020/09/05 01:25:19;;;;;;;4.4;4;;;;;;;14.98;90.5918;95534.82;;;;
2020/09/05 01:26:19;;;;;;;4.4;4;;;;;;;14.98;90.5918;95534.82;;;;
2020/09/05 01:27:20;;;;;;;4.4;4;;;;;;;14.98;90.5918;95534.82;;;;
2020/09/05 01:28:20;;;;;;;4.4;4;;;;;;;14.98;90.5918;95534.82;;;;
2020/09/05 01:29:21;;;;;;;4.4;4;;;;;;;14.98;90.5918;95534.82;;;;
2020/09/05 01:30:21;;;;;;;4.4;4;;;;;;;14.98;90.5918;95534.82;;;;
2020/09/05 01:31:22;;;;;;;4.4;4;;;;;;;14.98;90.5918;95534.82;;;;
2020/09/05 01:32:22;;;;;;;4.4;4;;;;;;;14.98;90.5918;95534.82;;;;
2020/09/05 01:33:23;;;;;;;4.4;4;;;;;;;14.98;90.5918;95534.82;;;;
2020/09/05 01:34:23;;;;;;;4.4;4;;;;;;;14.98;90.5918;95534.82;;;;
2020/09/05 01:35:23;;;;;;;4.25;3.95;;;;;;;14.91;91.06445;95527.26;;;;
2020/09/05 01:36:24;;;;;;;4.25;3.95;;;;;;;14.91;91.06445;95527.26;;;;
2020/09/05 01:37:24;;;;;;;4.25;3.95;;;;;;;14.91;91.06445;95527.26;;;;
2020/09/05 01:38:25;;;;;;;4.25;3.95;;;;;;;14.91;91.06445;95527.26;;;;
2020/09/05 01:39:25;;;;;;;4.25;3.95;;;;;;;14.91;91.06445;95527.26;;;;
2020/09/05 01:40:26;;;;;;;4.25;3.95;;;;;;;14.91;91.06445;95527.26;;;;
2020/09/05 01:41:26;;;;;;;4.25;3.95;;;;;;;14.91;91.06445;95527.26;;;;
2020/09/05 01:42:27;;;;;;;4.25;3.95;;;;;;;14.91;91.06445;95527.26;;;;
2020/09/05 01:43:28;;;;;;;4.25;3.95;;;;;;;14.91;91.06445;95527.26;;;;
2020/09/05 01:44:29;;;;;;;4.25;3.95;;;;;;;14.91;91.06445;95527.26;;;;
2020/09/05 01:45:29;;;;;;;4.25;3.95;;;;;;;14.91;91.06445;95527.26;;;;
2020/09/05 01:46:29;;;;;;;4.3;4;;;;;;;14.93;91.37988;95508.8;;;;
2020/09/05 01:47:30;;;;;;;4.3;4;;;;;;;14.93;91.37988;95508.8;;;;
2020/09/05 01:48:30;;;;;;;4.3;4;;;;;;;14.93;91.37988;95508.8;;;;
2020/09/05 01:49:31;;;;;;;4.3;4;;;;;;;14.93;91.37988;95508.8;;;;
2020/09/05 01:50:31;;;;;;;4.3;4;;;;;;;14.93;91.37988;95508.8;;;;
2020/09/05 01:51:32;;;;;;;4.3;4;;;;;;;14.93;91.37988;95508.8;;;;
2020/09/05 01:52:32;;;;;;;4.3;4;;;;;;;14.93;91.37988;95508.8;;;;
2020/09/05 01:53:33;;;;;;;4.3;4;;;;;;;14.93;91.37988;95508.8;;;;
2020/09/05 01:54:33;;;;;;;4.3;4;;;;;;;14.93;91.37988;95508.8;;;;
2020/09/05 01:55:34;;;;;;;4.3;4;;;;;;;14.93;91.37988;95508.8;;;;
2020/09/05 01:56:34;;;;;;;4.3;4;;;;;;;14.93;91.37988;95508.8;;;;
2020/09/05 01:57:35;;;;;;;4.3;3.9;;;;;;;14.86;91.76172;95502.75;;;;
2020/09/05 01:58:35;;;;;;;4.3;3.9;;;;;;;14.86;91.76172;95502.75;;;;
2020/09/05 01:59:35;;;;;;;4.3;3.9;;;;;;;14.86;91.76172;95502.75;;;;
2020/09/05 02:00:36;;;;;;;4.3;3.9;;;;;;;14.86;91.76172;95502.75;;;;
2020/09/05 02:01:36;;;;;;;4.3;3.9;;;;;;;14.86;91.76172;95502.75;;;;
2020/09/05 02:02:37;;;;;;;4.3;3.9;;;;;;;14.86;91.76172;95502.75;;;;
2020/09/05 02:03:37;;;;;;;4.3;3.9;;;;;;;14.86;91.76172;95502.75;;;;
2020/09/05 02:04:38;;;;;;;4.3;3.9;;;;;;;14.86;91.76172;95502.75;;;;
2020/09/05 02:05:38;;;;;;;4.3;3.9;;;;;;;14.86;91.76172;95502.75;;;;
2020/09/05 02:06:39;;;;;;;4.3;3.9;;;;;;;14.86;91.76172;95502.75;;;;
2020/09/05 02:07:39;;;;;;;4.45;4.05;;;;;;;14.88;92.08887;95486.6;;;;
2020/09/05 02:08:40;;;;;;;4.45;4.05;;;;;;;14.88;92.08887;95486.6;;;;
2020/09/05 02:09:40;;;;;;;4.45;4.05;;;;;;;14.88;92.08887;95486.6;;;;
2020/09/05 02:10:41;;;;;;;4.45;4.05;;;;;;;14.88;92.08887;95486.6;;;;
2020/09/05 02:11:41;;;;;;;4.45;4.05;;;;;;;14.88;92.08887;95486.6;;;;
2020/09/05 02:12:42;;;;;;;4.45;4.05;;;;;;;14.88;92.08887;95486.6;;;;
2020/09/05 02:13:43;;;;;;;4.45;4.05;;;;;;;14.88;92.08887;95486.6;;;;
2020/09/05 02:14:43;;;;;;;4.45;4.05;;;;;;;14.88;92.08887;95486.6;;;;
2020/09/05 02:15:44;;;;;;;4.45;4.05;;;;;;;14.88;92.08887;95486.6;;;;
2020/09/05 02:16:44;;;;;;;4.45;4.05;;;;;;;14.88;92.08887;95486.6;;;;
2020/09/05 02:17:45;;;;;;;4.45;4.05;;;;;;;14.88;92.08887;95486.6;;;;
2020/09/05 02:18:45;;;;;;;4.099999;3.8;;;;;;;14.79;92.41309;95489.49;;;;
2020/09/05 02:19:46;;;;;;;4.099999;3.8;;;;;;;14.79;92.41309;95489.49;;;;
2020/09/05 02:20:47;;;;;;;4.099999;3.8;;;;;;;14.79;92.41309;95489.49;;;;
2020/09/05 02:21:47;;;;;;;4.099999;3.8;;;;;;;14.79;92.41309;95489.49;;;;
2020/09/05 02:22:47;;;;;;;4.099999;3.8;;;;;;;14.79;92.41309;95489.49;;;;
2020/09/05 02:23:48;;;;;;;4.099999;3.8;;;;;;;14.79;92.41309;95489.49;;;;
2020/09/05 02:24:48;;;;;;;4.099999;3.8;;;;;;;14.79;92.41309;95489.49;;;;
2020/09/05 02:25:49;;;;;;;4.099999;3.8;;;;;;;14.79;92.41309;95489.49;;;;
2020/09/05 02:26:50;;;;;;;4.099999;3.8;;;;;;;14.79;92.41309;95489.49;;;;
2020/09/05 02:27:50;;;;;;;4.099999;3.8;;;;;;;14.79;92.41309;95489.49;;;;
2020/09/05 02:28:51;;;;;;;4.25;3.95;;;;;;;14.75;92.72754;95478.85;;;;
2020/09/05 02:29:51;;;;;;;4.25;3.95;;;;;;;14.75;92.72754;95478.85;;;;
2020/09/05 02:30:51;;;;;;;4.25;3.95;;;;;;;14.75;92.72754;95478.85;;;;
2020/09/05 02:31:52;;;;;;;4.25;3.95;;;;;;;14.75;92.72754;95478.85;;;;
2020/09/05 02:32:53;;;;;;;4.25;3.95;;;;;;;14.75;92.72754;95478.85;;;;
2020/09/05 02:33:53;;;;;;;4.25;3.95;;;;;;;14.75;92.72754;95478.85;;;;
2020/09/05 02:34:55;;;;;;;4.25;3.95;;;;;;;14.75;92.72754;95478.85;;;;
2020/09/05 02:35:56;;;;;;;4.25;3.95;;;;;;;14.75;92.72754;95478.85;;;;
2020/09/05 02:36:57;;;;;;;4.25;3.95;;;;;;;14.75;92.72754;95478.85;;;;
2020/09/05 02:37:57;;;;;;;4.25;3.95;;;;;;;14.75;92.72754;95478.85;;;;
2020/09/05 02:38:58;;;;;;;4.25;3.95;;;;;;;14.75;92.72754;95478.85;;;;
2020/09/05 02:39:58;;;;;;;4.5;4.099999;;;;;;;14.64;93.08105;95466.64;;;;
2020/09/05 02:40:59;;;;;;;4.5;4.099999;;;;;;;14.64;93.08105;95466.64;;;;
2020/09/05 02:41:59;;;;;;;4.5;4.099999;;;;;;;14.64;93.08105;95466.64;;;;
2020/09/05 02:43:00;;;;;;;4.5;4.099999;;;;;;;14.64;93.08105;95466.64;;;;
2020/09/05 02:44:00;;;;;;;4.5;4.099999;;;;;;;14.64;93.08105;95466.64;;;;
2020/09/05 02:45:01;;;;;;;4.5;4.099999;;;;;;;14.64;93.08105;95466.64;;;;
2020/09/05 02:46:01;;;;;;;4.5;4.099999;;;;;;;14.64;93.08105;95466.64;;;;
2020/09/05 02:47:02;;;;;;;4.5;4.099999;;;;;;;14.64;93.08105;95466.64;;;;
2020/09/05 02:48:02;;;;;;;4.5;4.099999;;;;;;;14.64;93.08105;95466.64;;;;
2020/09/05 02:49:03;;;;;;;4.5;4.099999;;;;;;;14.64;93.08105;95466.64;;;;
2020/09/05 02:50:03;;;;;;;4.400001;4;;;;;;;14.6;93.41699;95460.52;;;;
2020/09/05 02:51:04;;;;;;;4.400001;4;;;;;;;14.6;93.41699;95460.52;;;;
2020/09/05 02:52:04;;;;;;;4.400001;4;;;;;;;14.6;93.41699;95460.52;;;;
2020/09/05 02:53:05;;;;;;;4.400001;4;;;;;;;14.6;93.41699;95460.52;;;;
2020/09/05 02:54:05;;;;;;;4.400001;4;;;;;;;14.6;93.41699;95460.52;;;;
2020/09/05 02:55:06;;;;;;;4.400001;4;;;;;;;14.6;93.41699;95460.52;;;;
2020/09/05 02:56:06;;;;;;;4.400001;4;;;;;;;14.6;93.41699;95460.52;;;;
2020/09/05 02:57:07;;;;;;;4.400001;4;;;;;;;14.6;93.41699;95460.52;;;;
2020/09/05 02:58:08;;;;;;;4.400001;4;;;;;;;14.6;93.41699;95460.52;;;;
2020/09/05 02:59:08;;;;;;;4.400001;4;;;;;;;14.6;93.41699;95460.52;;;;
2020/09/05 03:00:09;;;;;;;4.400001;4;;;;;;;14.6;93.41699;95460.52;;;;
2020/09/05 03:01:09;;;;;;;4.199999;3.9;;;;;;;14.51;93.8457;95451.29;;;;
2020/09/05 03:02:10;;;;;;;4.199999;3.9;;;;;;;14.51;93.8457;95451.29;;;;
2020/09/05 03:03:10;;;;;;;4.199999;3.9;;;;;;;14.51;93.8457;95451.29;;;;
2020/09/05 03:04:11;;;;;;;4.199999;3.9;;;;;;;14.51;93.8457;95451.29;;;;
2020/09/05 03:05:11;;;;;;;4.199999;3.9;;;;;;;14.51;93.8457;95451.29;;;;
2020/09/05 03:06:12;;;;;;;4.199999;3.9;;;;;;;14.51;93.8457;95451.29;;;;
2020/09/05 03:07:12;;;;;;;4.199999;3.9;;;;;;;14.51;93.8457;95451.29;;;;
2020/09/05 03:08:13;;;;;;;4.199999;3.9;;;;;;;14.51;93.8457;95451.29;;;;
2020/09/05 03:09:13;;;;;;;4.199999;3.9;;;;;;;14.51;93.8457;95451.29;;;;
2020/09/05 03:10:14;;;;;;;4.199999;3.9;;;;;;;14.51;93.8457;95451.29;;;;
2020/09/05 03:11:14;;;;;;;4.199999;3.9;;;;;;;14.51;93.8457;95451.29;;;;
2020/09/05 03:12:15;;;;;;;4.25;3.85;;;;;;;14.51;94.22363;95440.84;;;;
2020/09/05 03:13:15;;;;;;;4.25;3.85;;;;;;;14.51;94.22363;95440.84;;;;
2020/09/05 03:14:16;;;;;;;4.25;3.85;;;;;;;14.51;94.22363;95440.84;;;;
2020/09/05 03:15:16;;;;;;;4.25;3.85;;;;;;;14.51;94.22363;95440.84;;;;
2020/09/05 03:16:17;;;;;;;4.25;3.85;;;;;;;14.51;94.22363;95440.84;;;;
2020/09/05 03:17:17;;;;;;;4.25;3.85;;;;;;;14.51;94.22363;95440.84;;;;
2020/09/05 03:18:18;;;;;;;4.25;3.85;;;;;;;14.51;94.22363;95440.84;;;;
2020/09/05 03:19:18;;;;;;;4.25;3.85;;;;;;;14.51;94.22363;95440.84;;;;
2020/09/05 03:20:19;;;;;;;4.25;3.85;;;;;;;14.51;94.22363;95440.84;;;;
2020/09/05 03:21:19;;;;;;;4.25;3.85;;;;;;;14.51;94.22363;95440.84;;;;
2020/09/05 03:22:20;;;;;;;5.2;3.95;;;;;;;14.44;94.55273;95433.84;;;;
2020/09/05 03:23:20;;;;;;;5.2;3.95;;;;;;;14.44;94.55273;95433.84;;;;
2020/09/05 03:24:21;;;;;;;5.2;3.95;;;;;;;14.44;94.55273;95433.84;;;;
2020/09/05 03:25:21;;;;;;;5.2;3.95;;;;;;;14.44;94.55273;95433.84;;;;
2020/09/05 03:26:22;;;;;;;5.2;3.95;;;;;;;14.44;94.55273;95433.84;;;;
2020/09/05 03:27:22;;;;;;;5.2;3.95;;;;;;;14.44;94.55273;95433.84;;;;
2020/09/05 03:28:23;;;;;;;5.2;3.95;;;;;;;14.44;94.55273;95433.84;;;;
2020/09/05 03:29:23;;;;;;;5.2;3.95;;;;;;;14.44;94.55273;95433.84;;;;
2020/09/05 03:30:24;;;;;;;5.2;3.95;;;;;;;14.44;94.55273;95433.84;;;;
2020/09/05 03:31:24;;;;;;;5.2;3.95;;;;;;;14.44;94.55273;95433.84;;;;
2020/09/05 03:32:25;;;;;;;5.2;3.95;;;;;;;14.44;94.55273;95433.84;;;;
2020/09/05 03:33:25;;;;;;;4.5;4.1;;;;;;;14.43;94.78516;95427.7;;;;
2020/09/05 03:34:26;;;;;;;4.5;4.1;;;;;;;14.43;94.78516;95427.7;;;;
2020/09/05 03:35:26;;;;;;;4.5;4.1;;;;;;;14.43;94.78516;95427.7;;;;
2020/09/05 03:36:26;;;;;;;4.5;4.1;;;;;;;14.43;94.78516;95427.7;;;;
2020/09/05 03:37:27;;;;;;;4.5;4.1;;;;;;;14.43;94.78516;95427.7;;;;
2020/09/05 03:38:27;;;;;;;4.5;4.1;;;;;;;14.43;94.78516;95427.7;;;;
2020/09/05 03:39:28;;;;;;;4.5;4.1;;;;;;;14.43;94.78516;95427.7;;;;
2020/09/05 03:40:28;;;;;;;4.5;4.1;;;;;;;14.43;94.78516;95427.7;;;;
2020/09/05 03:41:29;;;;;;;4.5;4.1;;;;;;;14.43;94.78516;95427.7;;;;
2020/09/05 03:42:33;;;;;;;4.5;4.1;;;;;;;14.43;94.78516;95427.7;;;;
2020/09/05 03:43:34;;;;;;;4.95;4;;;;;;;14.31;95.04883;95413.46;;;;
2020/09/05 03:44:35;;;;;;;4.95;4;;;;;;;14.31;95.04883;95413.46;;;;
2020/09/05 03:45:36;;;;;;;4.95;4;;;;;;;14.31;95.04883;95413.46;;;;
2020/09/05 03:46:36;;;;;;;4.95;4;;;;;;;14.31;95.04883;95413.46;;;;
2020/09/05 03:47:37;;;;;;;4.95;4;;;;;;;14.31;95.04883;95413.46;;;;
2020/09/05 03:48:37;;;;;;;4.95;4;;;;;;;14.31;95.04883;95413.46;;;;
2020/09/05 03:49:38;;;;;;;4.95;4;;;;;;;14.31;95.04883;95413.46;;;;
2020/09/05 03:50:40;;;;;;;4.95;4;;;;;;;14.31;95.04883;95413.46;;;;
2020/09/05 03:51:41;;;;;;;4.95;4;;;;;;;14.31;95.04883;95413.46;;;;
2020/09/05 03:52:42;;;;;;;4.95;4;;;;;;;14.31;95.04883;95413.46;;;;
2020/09/05 03:53:44;;;;;;;4.95;4;;;;;;;14.31;95.04883;95413.46;;;;
2020/09/05 03:54:45;;;;;;;4.15;3.8;;;;;;;14.27;95.49121;95403.64;;;;
2020/09/05 03:55:45;;;;;;;4.15;3.8;;;;;;;14.27;95.49121;95403.64;;;;
2020/09/05 03:56:46;;;;;;;4.15;3.8;;;;;;;14.27;95.49121;95403.64;;;;
2020/09/05 03:57:46;;;;;;;4.15;3.8;;;;;;;14.27;95.49121;95403.64;;;;
2020/09/05 03:58:48;;;;;;;4.15;3.8;;;;;;;14.27;95.49121;95403.64;;;;
2020/09/05 03:59:49;;;;;;;4.15;3.8;;;;;;;14.27;95.49121;95403.64;;;;
2020/09/05 04:00:51;;;;;;;4.15;3.8;;;;;;;14.27;95.49121;95403.64;;;;
2020/09/05 04:01:52;;;;;;;4.15;3.8;;;;;;;14.27;95.49121;95403.64;;;;
2020/09/05 04:02:53;;;;;;;4.15;3.8;;;;;;;14.27;95.49121;95403.64;;;;
2020/09/05 04:03:53;;;;;;;4.15;3.8;;;;;;;14.27;95.49121;95403.64;;;;
2020/09/05 04:04:55;;;;;;;3.8;3.5;;;;;;;14.24;96.04199;95406.44;;;;
2020/09/05 04:05:56;;;;;;;3.8;3.5;;;;;;;14.24;96.04199;95406.44;;;;
2020/09/05 04:06:56;;;;;;;3.8;3.5;;;;;;;14.24;96.04199;95406.44;;;;
2020/09/05 04:07:58;;;;;;;3.8;3.5;;;;;;;14.24;96.04199;95406.44;;;;
2020/09/05 04:08:59;;;;;;;3.8;3.5;;;;;;;14.24;96.04199;95406.44;;;;
2020/09/05 04:10:00;;;;;;;3.8;3.5;;;;;;;14.24;96.04199;95406.44;;;;
2020/09/05 04:11:01;;;;;;;3.8;3.5;;;;;;;14.24;96.04199;95406.44;;;;
2020/09/05 04:12:01;;;;;;;3.8;3.5;;;;;;;14.24;96.04199;95406.44;;;;
2020/09/05 04:13:02;;;;;;;3.8;3.5;;;;;;;14.24;96.04199;95406.44;;;;
2020/09/05 04:14:03;;;;;;;3.8;3.5;;;;;;;14.24;96.04199;95406.44;;;;
2020/09/05 04:15:03;;;;;;;3.8;3.5;;;;;;;14.24;96.04199;95406.44;;;;
2020/09/05 04:16:04;;;;;;;4.05;3.75;;;;;;;14.33;96.18945;95401.39;;;;
2020/09/05 04:17:07;;;;;;;4.05;3.75;;;;;;;14.33;96.18945;95401.39;;;;
2020/09/05 04:18:08;;;;;;;4.05;3.75;;;;;;;14.33;96.18945;95401.39;;;;
2020/09/05 04:19:09;;;;;;;4.05;3.75;;;;;;;14.33;96.18945;95401.39;;;;
2020/09/05 04:20:10;;;;;;;4.05;3.75;;;;;;;14.33;96.18945;95401.39;;;;
2020/09/05 04:21:12;;;;;;;4.05;3.75;;;;;;;14.33;96.18945;95401.39;;;;
2020/09/05 04:22:13;;;;;;;4.05;3.75;;;;;;;14.33;96.18945;95401.39;;;;
2020/09/05 04:23:13;;;;;;;4.05;3.75;;;;;;;14.33;96.18945;95401.39;;;;
2020/09/05 04:24:31;;;;;;;4.05;3.75;;;;;;;14.33;96.18945;95401.39;;;;
2020/09/05 04:25:32;;;;;;;4.05;3.75;;;;;;;14.33;96.18945;95401.39;;;;
2020/09/05 04:26:32;;;;;;;3.75;3.45;;;;;;;14.3;96.37793;95391.85;;;;
2020/09/05 04:27:33;;;;;;;3.75;3.45;;;;;;;14.3;96.37793;95391.85;;;;
2020/09/05 04:28:34;;;;;;;3.75;3.45;;;;;;;14.3;96.37793;95391.85;;;;
2020/09/05 04:29:36;;;;;;;3.75;3.45;;;;;;;14.3;96.37793;95391.85;;;;
2020/09/05 04:30:39;;;;;;;3.75;3.45;;;;;;;14.3;96.37793;95391.85;;;;
2020/09/05 04:31:39;;;;;;;3.75;3.45;;;;;;;14.3;96.37793;95391.85;;;;
2020/09/05 04:32:47;;;;;;;3.75;3.45;;;;;;;14.3;96.37793;95391.85;;;;
2020/09/05 04:33:50;;;;;;;3.75;3.45;;;;;;;14.3;96.37793;95391.85;;;;
2020/09/05 04:34:56;;;;;;;3.75;3.45;;;;;;;14.3;96.37793;95391.85;;;;
2020/09/05 04:35:56;;;;;;;3.75;3.45;;;;;;;14.3;96.37793;95391.85;;;;
2020/09/05 04:37:03;;;;;;;3.8;3.5;;;;;;;14.34;96.67578;95387.55;;;;
2020/09/05 04:38:05;;;;;;;3.8;3.5;;;;;;;14.34;96.67578;95387.55;;;;
2020/09/05 04:39:07;;;;;;;3.8;3.5;;;;;;;14.34;96.67578;95387.55;;;;
2020/09/05 04:40:08;;;;;;;3.8;3.5;;;;;;;14.34;96.67578;95387.55;;;;
2020/09/05 04:41:10;;;;;;;3.8;3.5;;;;;;;14.34;96.67578;95387.55;;;;
2020/09/05 04:42:12;;;;;;;3.8;3.5;;;;;;;14.34;96.67578;95387.55;;;;
2020/09/05 04:43:19;;;;;;;3.8;3.5;;;;;;;14.34;96.67578;95387.55;;;;
2020/09/05 04:44:36;;;;;;;3.8;3.5;;;;;;;14.34;96.67578;95387.55;;;;
2020/09/05 04:45:45;;;;;;;3.8;3.5;;;;;;;14.34;96.67578;95387.55;;;;
2020/09/05 04:46:49;;;;;;;3.8;3.5;;;;;;;14.34;96.67578;95387.55;;;;
2020/09/05 04:47:49;;;;;;;3.95;3.5;;;;;;;14.37;96.89648;95376.19;;;;
2020/09/05 04:48:50;;;;;;;3.95;3.5;;;;;;;14.37;96.89648;95376.19;;;;
2020/09/05 04:49:52;;;;;;;3.95;3.5;;;;;;;14.37;96.89648;95376.19;;;;
2020/09/05 04:50:55;;;;;;;3.95;3.5;;;;;;;14.37;96.89648;95376.19;;;;
2020/09/05 04:51:58;;;;;;;3.95;3.5;;;;;;;14.37;96.89648;95376.19;;;;
2020/09/05 04:53:06;;;;;;;3.95;3.5;;;;;;;14.37;96.89648;95376.19;;;;
2020/09/05 04:54:23;;;;;;;3.95;3.5;;;;;;;14.37;96.89648;95376.19;;;;
2020/09/05 04:55:28;;;;;;;3.95;3.5;;;;;;;14.37;96.89648;95376.19;;;;
2020/09/05 04:56:33;;;;;;;3.95;3.5;;;;;;;14.37;96.89648;95376.19;;;;
2020/09/05 04:57:36;;;;;;;3.95;3.5;;;;;;;14.37;96.89648;95376.19;;;;
2020/09/05 04:58:39;;;;;;;4.05;3.25;;;;;;;14.52;96.92773;95373.18;;;;
2020/09/05 04:59:42;;;;;;;4.05;3.25;;;;;;;14.52;96.92773;95373.18;;;;
2020/09/05 05:00:58;;;;;;;4.05;3.25;;;;;;;14.52;96.92773;95373.18;;;;
2020/09/05 05:01:59;;;;;;;4.05;3.25;;;;;;;14.52;96.92773;95373.18;;;;
2020/09/05 05:02:59;;;;;;;4.05;3.25;;;;;;;14.52;96.92773;95373.18;;;;
2020/09/05 05:04:32;;;;;;;4.05;3.25;;;;;;;14.52;96.92773;95373.18;;;;
2020/09/05 05:05:34;;;;;;;4.05;3.25;;;;;;;14.52;96.92773;95373.18;;;;
2020/09/05 05:06:35;;;;;;;4.05;3.25;;;;;;;14.52;96.92773;95373.18;;;;
2020/09/05 05:07:36;;;;;;;4.05;3.25;;;;;;;14.52;96.92773;95373.18;;;;
2020/09/05 05:08:42;;;;;;;3.45;3.15;;;;;;;14.63;97.08105;95370.84;;;;
2020/09/05 05:09:43;;;;;;;3.45;3.15;;;;;;;14.63;97.08105;95370.84;;;;
2020/09/05 05:10:48;;;;;;;3.45;3.15;;;;;;;14.63;97.08105;95370.84;;;;
2020/09/05 05:11:49;;;;;;;3.45;3.15;;;;;;;14.63;97.08105;95370.84;;;;
2020/09/05 05:12:49;;;;;;;3.45;3.15;;;;;;;14.63;97.08105;95370.84;;;;
2020/09/05 05:13:52;;;;;;;3.45;3.15;;;;;;;14.63;97.08105;95370.84;;;;
2020/09/05 05:14:53;;;;;;;3.45;3.15;;;;;;;14.63;97.08105;95370.84;;;;
2020/09/05 05:15:54;;;;;;;3.45;3.15;;;;;;;14.63;97.08105;95370.84;;;;
2020/09/05 05:16:54;;;;;;;3.45;3.15;;;;;;;14.63;97.08105;95370.84;;;;
2020/09/05 05:17:55;;;;;;;3.45;3.15;;;;;;;14.63;97.08105;95370.84;;;;
2020/09/05 05:18:55;;;;;;;3.45;3.15;;;;;;;14.63;97.08105;95370.84;;;;
2020/09/05 05:19:56;;;;;;;3.7;3.400001;;;;;;;14.8;96.78711;95376.98;;;;
2020/09/05 05:20:56;;;;;;;3.7;3.400001;;;;;;;14.8;96.78711;95376.98;;;;
2020/09/05 05:21:57;;;;;;;3.7;3.400001;;;;;;;14.8;96.78711;95376.98;;;;
2020/09/05 05:22:58;;;;;;;3.7;3.400001;;;;;;;14.8;96.78711;95376.98;;;;
2020/09/05 05:23:58;;;;;;;3.7;3.400001;;;;;;;14.8;96.78711;95376.98;;;;
2020/09/05 05:25:01;;;;;;;3.7;3.400001;;;;;;;14.8;96.78711;95376.98;;;;
2020/09/05 05:26:02;;;;;;;3.7;3.400001;;;;;;;14.8;96.78711;95376.98;;;;
2020/09/05 05:27:31;;;;;;;3.7;3.400001;;;;;;;14.8;96.78711;95376.98;;;;
2020/09/05 05:28:32;;;;;;;3.7;3.400001;;;;;;;14.8;96.78711;95376.98;;;;
2020/09/05 05:29:32;;;;;;;3.7;3.400001;;;;;;;14.8;96.78711;95376.98;;;;
2020/09/05 05:30:35;;;;;;;3.4;3.15;;;;;;;14.93;96.75195;95368.77;;;;
2020/09/05 05:31:36;;;;;;;3.4;3.15;;;;;;;14.93;96.75195;95368.77;;;;
2020/09/05 05:32:36;;;;;;;3.4;3.15;;;;;;;14.93;96.75195;95368.77;;;;
2020/09/05 05:33:37;;;;;;;3.4;3.15;;;;;;;14.93;96.75195;95368.77;;;;
2020/09/05 05:34:37;;;;;;;3.4;3.15;;;;;;;14.93;96.75195;95368.77;;;;
2020/09/05 05:35:39;;;;;;;3.4;3.15;;;;;;;14.93;96.75195;95368.77;;;;
2020/09/05 05:36:51;;;;;;;3.4;3.15;;;;;;;14.93;96.75195;95368.77;;;;
2020/09/05 05:37:52;;;;;;;3.4;3.15;;;;;;;14.93;96.75195;95368.77;;;;
2020/09/05 05:39:01;;;;;;;3.4;3.15;;;;;;;14.93;96.75195;95368.77;;;;
2020/09/05 05:40:09;;;;;;;3.4;3.15;;;;;;;14.93;96.75195;95368.77;;;;
2020/09/05 05:41:10;;;;;;;3.8;3;;;;;;;15.34;96.73145;95368.11;;;;
2020/09/05 05:42:11;;;;;;;3.8;3;;;;;;;15.34;96.73145;95368.11;;;;
2020/09/05 05:43:12;;;;;;;3.8;3;;;;;;;15.34;96.73145;95368.11;;;;
2020/09/05 05:44:13;;;;;;;3.8;3;;;;;;;15.34;96.73145;95368.11;;;;
2020/09/05 05:45:13;;;;;;;3.8;3;;;;;;;15.34;96.73145;95368.11;;;;
2020/09/05 05:46:14;;;;;;;3.8;3;;;;;;;15.34;96.73145;95368.11;;;;
2020/09/05 05:47:19;;;;;;;3.8;3;;;;;;;15.34;96.73145;95368.11;;;;
2020/09/05 05:48:19;;;;;;;3.8;3;;;;;;;15.34;96.73145;95368.11;;;;
2020/09/05 05:49:22;;;;;;;3.8;3;;;;;;;15.34;96.73145;95368.11;;;;
2020/09/05 05:50:24;;;;;;;3.8;3;;;;;;;15.34;96.73145;95368.11;;;;
2020/09/05 05:51:25;;;;;;;3.15;2.95;;;;;;;15.92;95.40527;95371.56;;;;
2020/09/05 05:52:25;;;;;;;3.15;2.95;;;;;;;15.92;95.40527;95371.56;;;;
2020/09/05 05:53:26;;;;;;;3.15;2.95;;;;;;;15.92;95.40527;95371.56;;;;
2020/09/05 05:54:27;;;;;;;3.15;2.95;;;;;;;15.92;95.40527;95371.56;;;;
2020/09/05 05:55:29;;;;;;;3.15;2.95;;;;;;;15.92;95.40527;95371.56;;;;
2020/09/05 05:56:31;;;;;;;3.15;2.95;;;;;;;15.92;95.40527;95371.56;;;;